Time;durP1;ratioP1;P1;durP2;ratioP2;P2;SDS_P1;SDS_P2;PMS_P1;PMS_P2;Temp;Humidity;BMP_temperature;BMP_pressure;BME280_temperature;BME280_humidity;BME280_pressure;Samples;Min_cycle;Max_cycle;Signal;HPM_P1;HPM_P2
2022/07/26 00:02:56;;;;;;;4.80;3.70;;;;;;;18.30;64.13;99542.40;130450;1265;108907;-75
2022/07/26 00:06:02;;;;;;;4.20;3.50;;;;;;;18.24;64.17;99538.67;130423;1265;108789;-74
2022/07/26 00:09:07;;;;;;;4.70;3.50;;;;;;;18.26;64.20;99534.00;130405;1265;108470;-75
2022/07/26 00:12:13;;;;;;;5.20;3.70;;;;;;;18.29;64.18;99529.58;130430;1265;108794;-74
2022/07/26 00:15:18;;;;;;;4.00;3.60;;;;;;;18.29;64.30;99526.04;130378;1265;108801;-75
2022/07/26 00:18:24;;;;;;;4.30;3.90;;;;;;;18.25;64.39;99518.26;130449;1265;108968;-73
2022/07/26 00:21:29;;;;;;;4.00;3.60;;;;;;;18.21;64.49;99511.49;130421;1265;108783;-73
2022/07/26 00:24:35;;;;;;;4.80;3.50;;;;;;;18.15;64.54;99515.04;130368;1268;108693;-75
2022/07/26 00:27:40;;;;;;;4.20;3.80;;;;;;;18.10;64.70;99501.99;130345;1266;108898;-73
2022/07/26 00:30:46;;;;;;;5.40;4.00;;;;;;;18.03;64.74;99497.14;130405;1268;108814;-74
2022/07/26 00:33:52;;;;;;;5.80;4.30;;;;;;;17.97;64.82;99500.97;130608;1265;108559;-76
2022/07/26 00:36:57;;;;;;;4.70;3.80;;;;;;;17.90;64.87;99508.12;130555;1266;107683;-74
2022/07/26 00:40:03;;;;;;;5.30;4.50;;;;;;;17.83;65.05;99502.14;130492;1268;108891;-76
2022/07/26 00:43:08;;;;;;;4.60;3.20;;;;;;;17.79;65.09;99496.89;130402;1268;108915;-76
2022/07/26 00:46:14;;;;;;;4.70;3.70;;;;;;;17.78;65.27;99487.91;130474;1267;109206;-76
2022/07/26 00:49:19;;;;;;;6.50;4.30;;;;;;;17.80;65.36;99484.26;130447;1268;108800;-78
2022/07/26 00:52:25;;;;;;;4.20;3.80;;;;;;;17.82;65.38;99479.97;130471;1265;108668;-78
2022/07/26 00:55:31;;;;;;;5.20;3.90;;;;;;;17.83;65.39;99479.29;130621;1268;108882;-76
2022/07/26 00:58:37;;;;;;;5.40;4.20;;;;;;;17.81;65.52;99482.33;130516;1267;107400;-76
2022/07/26 01:01:42;;;;;;;6.00;4.10;;;;;;;17.78;65.55;99482.11;130422;1268;107696;-75
2022/07/26 01:04:47;;;;;;;9.50;4.20;;;;;;;17.75;65.59;99481.67;130404;1266;108681;-75
2022/07/26 01:07:54;;;;;;;5.10;3.70;;;;;;;17.72;65.75;99473.98;130430;1268;108981;-77
2022/07/26 01:11:00;;;;;;;10.80;4.10;;;;;;;17.68;65.76;99477.95;130437;1268;108929;-73
2022/07/26 01:14:05;;;;;;;4.30;3.50;;;;;;;17.64;65.80;99481.51;130399;1266;109073;-73
2022/07/26 01:17:11;;;;;;;3.60;3.20;;;;;;;17.60;65.91;99481.56;130440;1267;108710;-71
2022/07/26 01:20:17;;;;;;;4.60;3.10;;;;;;;17.60;66.18;99476.80;130571;1268;107433;-73
2022/07/26 01:23:22;;;;;;;3.80;3.40;;;;;;;17.62;66.11;99475.21;130547;1268;108824;-72
2022/07/26 01:26:28;;;;;;;3.90;3.50;;;;;;;17.62;66.24;99473.38;130594;1266;108724;-73
2022/07/26 01:29:33;;;;;;;4.30;3.90;;;;;;;17.61;66.26;99474.06;130418;1267;108868;-74
2022/07/26 01:32:39;;;;;;;4.60;3.70;;;;;;;17.61;66.33;99474.42;130318;1268;108515;-74
2022/07/26 01:35:44;;;;;;;4.70;3.90;;;;;;;17.59;66.25;99477.59;130514;1267;108834;-73
2022/07/26 01:38:50;;;;;;;4.70;4.10;;;;;;;17.55;66.48;99469.30;130448;1268;108916;-74
2022/07/26 01:41:56;;;;;;;4.50;4.10;;;;;;;17.52;66.49;99466.48;130449;1268;108834;-73
2022/07/26 01:45:01;;;;;;;5.60;4.20;;;;;;;17.48;66.56;99464.92;130489;1268;108840;-74
2022/07/26 01:48:08;;;;;;;4.90;4.00;;;;;;;17.46;66.53;99462.79;130488;1268;109720;-74
2022/07/26 01:51:13;;;;;;;3.50;3.20;;;;;;;17.45;66.68;99458.89;130399;1268;108891;-73
2022/07/26 01:54:19;;;;;;;4.30;3.60;;;;;;;17.46;66.69;99461.04;130493;1268;108723;-74
2022/07/26 01:57:25;;;;;;;4.50;3.80;;;;;;;17.50;66.68;99454.13;130382;1268;108736;-74
2022/07/26 02:00:30;;;;;;;5.60;4.20;;;;;;;17.54;66.68;99450.13;130439;1268;108689;-78
2022/07/26 02:03:36;;;;;;;5.00;4.00;;;;;;;17.56;66.74;99453.71;130485;1268;107728;-74
2022/07/26 02:06:41;;;;;;;5.70;4.60;;;;;;;17.58;66.68;99450.05;130643;1268;108840;-72
2022/07/26 02:09:47;;;;;;;4.40;4.00;;;;;;;17.58;66.73;99450.84;130570;1268;108827;-73
2022/07/26 02:12:52;;;;;;;5.30;4.30;;;;;;;17.52;66.79;99445.85;130402;1266;107748;-72
2022/07/26 02:15:58;;;;;;;4.50;4.10;;;;;;;17.47;66.79;99436.52;130417;1266;109011;-71
2022/07/26 02:19:04;;;;;;;5.00;4.20;;;;;;;17.42;66.87;99425.42;130414;1268;108676;-73
2022/07/26 02:22:09;;;;;;;5.60;3.90;;;;;;;17.36;67.00;99421.48;130470;1268;108823;-77
2022/07/26 02:25:15;;;;;;;5.00;3.80;;;;;;;17.31;67.02;99415.29;130415;1267;108662;-79
2022/07/26 02:28:20;;;;;;;4.10;3.70;;;;;;;17.29;67.14;99416.64;130443;1268;108839;-79
2022/07/26 02:31:26;;;;;;;4.60;4.00;;;;;;;17.30;67.17;99414.81;130521;1268;108995;-73
2022/07/26 02:34:32;;;;;;;5.90;4.50;;;;;;;17.31;67.28;99418.28;130398;1268;108774;-75
2022/07/26 02:37:39;;;;;;;4.50;4.10;;;;;;;17.30;67.43;99413.98;130412;1268;107690;-74
2022/07/26 02:40:44;;;;;;;5.10;4.30;;;;;;;17.25;67.43;99415.63;130441;1266;107310;-75
2022/07/26 02:43:50;;;;;;;4.60;3.90;;;;;;;17.22;67.65;99418.09;130445;1268;108762;-74
2022/07/26 02:46:55;;;;;;;4.60;4.20;;;;;;;17.22;67.62;99423.73;130495;1268;108591;-76
2022/07/26 02:50:00;;;;;;;4.70;4.30;;;;;;;17.21;67.63;99429.79;130486;1268;108700;-77
2022/07/26 02:53:06;;;;;;;5.80;3.90;;;;;;;17.20;67.80;99431.29;130452;1268;109349;-75
2022/07/26 02:56:11;;;;;;;4.50;3.70;;;;;;;17.26;67.89;99424.20;130439;1268;108869;-75
2022/07/26 02:59:17;;;;;;;4.20;3.70;;;;;;;17.38;68.03;99419.15;130430;1268;108896;-73
2022/07/26 03:02:22;;;;;;;4.50;4.00;;;;;;;17.49;67.88;99417.95;130598;1268;108865;-74
2022/07/26 03:05:27;;;;;;;4.40;3.90;;;;;;;17.63;67.90;99411.42;130526;1268;108750;-74
2022/07/26 03:08:33;;;;;;;4.70;4.10;;;;;;;17.76;67.61;99420.85;130571;1268;108868;-73
2022/07/26 03:11:38;;;;;;;4.20;3.80;;;;;;;17.83;67.62;99422.58;130462;1267;108647;-73
2022/07/26 03:14:44;;;;;;;6.90;4.20;;;;;;;17.85;67.69;99413.29;130410;1268;108825;-73
2022/07/26 03:17:49;;;;;;;4.80;4.30;;;;;;;17.91;67.71;99406.56;130387;1268;108802;-74
2022/07/26 03:20:55;;;;;;;4.60;4.20;;;;;;;18.00;67.75;99405.72;130617;1267;108988;-74
2022/07/26 03:24:00;;;;;;;5.60;4.50;;;;;;;18.13;67.63;99394.92;130572;1268;108772;-74
2022/07/26 03:27:06;;;;;;;4.80;4.30;;;;;;;18.24;67.55;99385.21;130607;1268;107411;-75
2022/07/26 03:30:13;;;;;;;4.40;3.90;;;;;;;18.42;67.58;99379.42;130483;1265;109710;-74
2022/07/26 03:33:19;;;;;;;4.40;4.00;;;;;;;18.59;67.38;99379.52;130454;1268;108718;-74
2022/07/26 03:36:24;;;;;;;4.60;4.20;;;;;;;18.70;67.22;99373.73;130397;1265;108769;-74
2022/07/26 03:39:29;;;;;;;5.00;4.20;;;;;;;18.81;67.26;99365.62;130380;1268;108843;-75
2022/07/26 03:42:35;;;;;;;4.60;4.10;;;;;;;18.99;67.17;99364.30;130396;1266;108735;-74
2022/07/26 03:45:41;;;;;;;5.20;4.10;;;;;;;19.18;67.13;99364.86;130461;1268;108248;-74
2022/07/26 03:48:47;;;;;;;4.90;4.40;;;;;;;19.36;66.78;99360.20;130476;1267;108923;-75
2022/07/26 03:51:54;;;;;;;5.60;4.20;;;;;;;19.44;66.69;99351.94;130387;1266;108966;-75
2022/07/26 03:54:59;;;;;;;4.50;4.10;;;;;;;19.48;66.67;99347.20;130420;1268;108241;-75
2022/07/26 03:58:05;;;;;;;4.90;4.40;;;;;;;19.53;66.65;99349.57;130440;1268;108210;-74
2022/07/26 04:01:10;;;;;;;5.30;4.50;;;;;;;19.57;66.44;99351.59;130474;1268;108693;-74
2022/07/26 04:04:17;;;;;;;4.50;4.10;;;;;;;19.68;66.36;99347.11;130373;1266;108983;-73
2022/07/26 04:07:23;;;;;;;4.40;4.00;;;;;;;19.83;66.32;99348.92;130518;1266;108892;-74
2022/07/26 04:10:28;;;;;;;5.30;3.70;;;;;;;19.99;66.08;99352.20;130534;1268;108660;-73
2022/07/26 04:13:34;;;;;;;5.00;4.00;;;;;;;20.09;65.84;99356.05;130682;1267;109040;-74
2022/07/26 04:16:39;;;;;;;5.40;4.00;;;;;;;20.22;65.91;99351.23;130593;1266;108675;-74
2022/07/26 04:19:45;;;;;;;5.50;4.20;;;;;;;20.44;65.68;99346.27;130519;1266;109681;-74
2022/07/26 04:22:50;;;;;;;5.20;4.20;;;;;;;20.68;65.53;99334.41;130495;1268;108785;-75
2022/07/26 04:25:56;;;;;;;4.80;4.10;;;;;;;21.00;65.30;99324.20;130441;1266;108849;-75
2022/07/26 04:29:01;;;;;;;5.40;4.20;;;;;;;21.32;64.99;99320.83;130674;1267;108739;-75
2022/07/26 04:32:07;;;;;;;5.30;4.20;;;;;;;21.59;64.65;99320.20;130405;1268;108700;-74
2022/07/26 04:35:13;;;;;;;4.30;3.70;;;;;;;21.85;64.44;99321.67;130363;1268;109805;-76
2022/07/26 04:38:18;;;;;;;4.80;4.20;;;;;;;22.08;64.00;99321.11;130431;1268;108737;-76
2022/07/26 04:41:24;;;;;;;4.60;3.90;;;;;;;22.33;63.75;99322.27;130399;1268;108922;-77
2022/07/26 04:44:29;;;;;;;4.50;3.70;;;;;;;22.42;63.67;99326.40;130318;1268;108973;-76
2022/07/26 04:47:35;;;;;;;5.60;4.20;;;;;;;22.47;63.49;99332.55;130362;1268;108986;-77
2022/07/26 04:50:41;;;;;;;4.40;3.90;;;;;;;22.56;63.45;99328.20;130288;1267;109317;-75
2022/07/26 04:53:46;;;;;;;4.00;3.60;;;;;;;22.67;63.12;99329.46;130312;1268;108769;-75
2022/07/26 04:56:52;;;;;;;5.10;3.70;;;;;;;22.77;62.98;99321.34;130292;1268;108747;-77
2022/07/26 04:59:58;;;;;;;5.70;4.10;;;;;;;22.79;62.81;99318.05;130356;1268;108967;-77
2022/07/26 05:03:04;;;;;;;4.70;4.00;;;;;;;22.79;62.47;99316.80;130297;1268;108844;-74
2022/07/26 05:06:09;;;;;;;4.70;4.20;;;;;;;22.79;62.43;99314.50;130318;1268;108654;-75
2022/07/26 05:09:15;;;;;;;4.20;3.80;;;;;;;22.84;62.40;99312.21;130277;1268;106836;-75
2022/07/26 05:12:20;;;;;;;4.10;3.70;;;;;;;22.86;62.21;99311.05;130268;1268;108885;-75
2022/07/26 05:15:26;;;;;;;4.50;4.00;;;;;;;22.91;62.01;99311.31;130312;1268;107019;-76
2022/07/26 05:18:31;;;;;;;4.10;3.80;;;;;;;22.92;62.06;99311.16;130328;1268;108769;-75
2022/07/26 05:21:37;;;;;;;5.30;3.70;;;;;;;22.93;61.90;99310.13;130286;1268;108252;-75
2022/07/26 05:24:42;;;;;;;4.20;3.80;;;;;;;22.99;61.85;99316.17;130331;1268;109125;-75
2022/07/26 05:27:48;;;;;;;4.60;3.60;;;;;;;23.06;61.64;99321.39;130316;1268;108765;-75
2022/07/26 05:30:53;;;;;;;5.90;3.70;;;;;;;23.20;61.58;99316.17;130306;1268;108893;-75
2022/07/26 05:33:59;;;;;;;4.10;3.70;;;;;;;23.34;61.35;99312.75;130370;1268;108676;-78
2022/07/26 05:37:04;;;;;;;4.90;3.60;;;;;;;23.43;61.46;99316.96;130285;1268;108900;-74
2022/07/26 05:40:11;;;;;;;21.80;4.60;;;;;;;23.51;61.46;99314.46;130335;1268;108260;-75
2022/07/26 05:43:16;;;;;;;3.70;3.30;;;;;;;23.60;61.21;99321.55;130334;1268;109696;-76
2022/07/26 05:46:22;;;;;;;4.10;3.60;;;;;;;23.68;61.02;99329.32;130411;1268;108710;-75
2022/07/26 05:49:27;;;;;;;4.60;3.50;;;;;;;23.72;60.92;99342.98;130454;1268;108696;-75
2022/07/26 05:52:33;;;;;;;4.70;3.70;;;;;;;23.71;60.77;99374.73;130414;1265;108864;-75
2022/07/26 05:55:38;;;;;;;4.20;3.50;;;;;;;23.71;60.78;99373.15;130417;1265;108919;-76
2022/07/26 05:58:44;;;;;;;5.90;3.60;;;;;;;23.76;60.82;99361.20;130403;1266;108765;-76
2022/07/26 06:01:49;;;;;;;4.30;3.70;;;;;;;23.67;60.34;99377.38;130355;1266;108690;-77
2022/07/26 06:04:55;;;;;;;3.70;3.40;;;;;;;23.63;60.63;99384.81;130470;1267;108588;-75
2022/07/26 06:08:00;;;;;;;3.80;3.30;;;;;;;23.70;60.48;99388.23;130496;1265;108710;-75
2022/07/26 06:11:06;;;;;;;5.30;3.40;;;;;;;23.70;60.32;99387.69;130470;1265;108806;-76
2022/07/26 06:14:11;;;;;;;3.60;3.20;;;;;;;23.78;60.50;99379.65;130487;1266;108935;-77
2022/07/26 06:17:17;;;;;;;3.90;3.60;;;;;;;23.85;60.25;99380.80;130395;1268;108751;-77
2022/07/26 06:20:22;;;;;;;4.40;3.30;;;;;;;23.93;60.12;99376.11;130400;1267;108911;-77
2022/07/26 06:23:28;;;;;;;4.60;3.60;;;;;;;24.00;59.85;99376.42;130380;1265;108330;-75
2022/07/26 06:26:33;;;;;;;4.20;3.50;;;;;;;24.09;59.93;99377.13;130437;1265;108742;-77
2022/07/26 06:29:39;;;;;;;4.70;3.70;;;;;;;24.18;59.65;99378.92;130383;1265;108971;-76
2022/07/26 06:32:44;;;;;;;4.00;3.60;;;;;;;24.27;59.59;99372.27;130376;1265;108783;-75
2022/07/26 06:35:50;;;;;;;4.10;3.70;;;;;;;24.36;59.56;99363.48;130523;1267;108952;-77
2022/07/26 06:38:55;;;;;;;4.10;3.70;;;;;;;24.55;59.54;99360.09;130385;1268;108729;-75
2022/07/26 06:42:00;;;;;;;4.80;3.60;;;;;;;24.69;59.35;99358.95;130425;1265;108837;-76
2022/07/26 06:45:09;;;;;;;3.70;3.40;;;;;;;24.87;58.82;99364.23;130487;1265;108707;-76
2022/07/26 06:48:14;;;;;;;4.60;3.20;;;;;;;24.96;58.68;99372.27;130445;1265;108701;-76
2022/07/26 06:51:20;;;;;;;3.80;3.50;;;;;;;25.05;58.19;99375.39;130387;1268;108822;-76
2022/07/26 06:54:26;;;;;;;4.20;3.80;;;;;;;25.09;57.81;99371.95;130346;1265;108807;-76
2022/07/26 06:57:31;;;;;;;4.00;3.60;;;;;;;25.08;57.86;99362.46;130513;1262;109104;-76
2022/07/26 07:00:37;;;;;;;5.10;3.60;;;;;;;25.11;57.46;99362.46;130549;1265;109252;-76
2022/07/26 07:03:42;;;;;;;4.10;3.70;;;;;;;25.01;56.96;99359.39;130573;1265;108894;-76
2022/07/26 07:06:48;;;;;;;4.00;3.60;;;;;;;25.03;57.38;99351.27;130353;1267;107032;-76
2022/07/26 07:09:53;;;;;;;4.70;4.20;;;;;;;25.02;56.34;99351.48;130376;1265;108724;-76
2022/07/26 07:12:58;;;;;;;4.50;4.10;;;;;;;24.87;56.62;99343.54;130477;1265;108824;-75
2022/07/26 07:16:04;;;;;;;4.30;3.90;;;;;;;24.76;56.39;99343.08;130464;1265;108945;-76
2022/07/26 07:19:09;;;;;;;6.00;4.10;;;;;;;24.68;56.56;99336.02;130519;1265;108682;-76
2022/07/26 07:22:15;;;;;;;4.30;3.70;;;;;;;24.70;56.75;99335.53;130503;1265;107673;-76
2022/07/26 07:25:21;;;;;;;5.10;4.60;;;;;;;24.70;55.27;99336.45;130513;1265;107631;-76
2022/07/26 07:28:26;;;;;;;6.80;4.50;;;;;;;24.53;55.18;99337.81;130448;1265;108836;-76
2022/07/26 07:31:31;;;;;;;6.60;4.50;;;;;;;24.39;55.36;99348.44;130439;1265;107616;-76
2022/07/26 07:34:37;;;;;;;5.50;4.50;;;;;;;24.32;55.68;99351.73;130423;1266;109054;-76
2022/07/26 07:37:42;;;;;;;6.10;4.10;;;;;;;24.32;55.63;99353.20;130422;1265;108735;-76
2022/07/26 07:40:47;;;;;;;5.40;3.80;;;;;;;24.31;55.66;99359.04;130533;1265;108780;-77
2022/07/26 07:43:53;;;;;;;6.40;4.00;;;;;;;24.32;54.88;99374.58;130385;1265;108866;-76
2022/07/26 07:46:58;;;;;;;6.00;3.70;;;;;;;24.24;54.20;99384.69;130412;1265;108853;-76
2022/07/26 07:50:04;;;;;;;4.70;4.20;;;;;;;24.13;54.44;99385.92;130382;1265;108713;-76
2022/07/26 07:53:09;;;;;;;4.80;4.20;;;;;;;24.03;54.36;99385.92;130547;1267;108936;-77
2022/07/26 07:56:15;;;;;;;5.60;4.30;;;;;;;23.94;54.58;99384.34;130563;1268;108942;-76
2022/07/26 07:59:20;;;;;;;6.20;4.20;;;;;;;23.83;53.99;99390.20;130552;1268;108831;-76
2022/07/26 08:02:25;;;;;;;4.20;3.80;;;;;;;23.69;53.95;99400.04;130394;1268;108862;-76
2022/07/26 08:05:31;;;;;;;6.10;4.30;;;;;;;23.67;54.17;99403.31;130475;1267;109042;-76
2022/07/26 08:08:37;;;;;;;5.30;4.20;;;;;;;23.68;54.63;99418.56;130502;1268;107402;-77
2022/07/26 08:11:42;;;;;;;5.10;3.90;;;;;;;23.72;54.15;99425.84;130408;1265;108726;-77
2022/07/26 08:14:48;;;;;;;5.70;3.90;;;;;;;23.72;54.43;99433.52;130396;1265;109041;-77
2022/07/26 08:17:53;;;;;;;4.70;3.90;;;;;;;23.71;54.15;99442.44;130430;1268;108329;-77
2022/07/26 08:20:59;;;;;;;4.80;3.60;;;;;;;23.72;54.46;99450.46;130407;1265;108678;-77
2022/07/26 08:24:05;;;;;;;5.00;4.10;;;;;;;23.79;54.29;99458.50;130402;1265;108096;-77
2022/07/26 08:27:10;;;;;;;5.40;3.70;;;;;;;23.86;53.86;99468.37;130385;1265;108581;-77
2022/07/26 08:30:15;;;;;;;5.00;4.20;;;;;;;23.83;53.89;99467.48;130372;1266;108827;-78
2022/07/26 08:33:22;;;;;;;4.60;3.90;;;;;;;23.83;53.82;99463.39;130468;1266;108472;-77
2022/07/26 08:36:27;;;;;;;6.00;3.90;;;;;;;23.93;53.41;99458.23;130442;1265;108146;-77
2022/07/26 08:39:32;;;;;;;5.20;4.00;;;;;;;24.04;53.63;99464.27;130372;1268;108901;-77
2022/07/26 08:42:38;;;;;;;4.40;4.00;;;;;;;24.12;53.06;99470.42;130359;1265;108725;-77
2022/07/26 08:45:48;;;;;;;5.00;3.80;;;;;;;24.12;53.18;99475.87;130289;1265;109015;-76
2022/07/26 08:48:53;;;;;;;6.60;4.20;;;;;;;24.14;52.73;99482.36;130537;1265;108710;-76
2022/07/26 08:51:59;;;;;;;5.30;3.70;;;;;;;24.10;52.73;99492.52;130564;1265;108810;-76
2022/07/26 08:55:05;;;;;;;5.30;3.50;;;;;;;24.18;53.22;99497.83;130524;1265;108620;-76
2022/07/26 08:58:10;;;;;;;7.30;4.00;;;;;;;24.21;52.89;99504.02;130432;1265;108204;-76
2022/07/26 09:01:15;;;;;;;6.60;4.00;;;;;;;24.22;53.25;99498.95;130435;1265;108699;-76
2022/07/26 09:04:23;;;;;;;5.70;3.80;;;;;;;24.38;53.80;99505.60;130555;1265;109329;-78
2022/07/26 09:07:34;;;;;;;6.40;4.50;;;;;;;24.60;53.84;99502.43;130567;1265;108857;-78
2022/07/26 09:10:39;;;;;;;6.40;4.60;;;;;;;24.58;53.43;99508.63;130564;1266;108634;-76
2022/07/26 09:13:56;;;;;;;5.60;5.00;;;;;;;24.31;52.83;99517.27;130505;1265;108753;-78
2022/07/26 09:17:01;;;;;;;5.10;4.50;;;;;;;24.03;53.52;99516.08;130396;1265;107594;-75
2022/07/26 09:20:09;;;;;;;6.00;5.00;;;;;;;24.00;54.04;99515.51;130407;1265;108737;-76
2022/07/26 09:23:15;;;;;;;5.40;4.60;;;;;;;23.99;54.20;99517.63;130455;1265;108641;-78
2022/07/26 09:26:23;;;;;;;5.10;4.60;;;;;;;24.01;54.59;99519.55;130376;1265;108512;-77
2022/07/26 09:29:29;;;;;;;6.20;4.80;;;;;;;23.91;54.58;99525.08;130396;1265;108686;-77
2022/07/26 09:32:35;;;;;;;6.90;4.70;;;;;;;23.63;55.15;99525.98;130363;1265;107572;-76
2022/07/26 09:35:41;;;;;;;6.60;4.90;;;;;;;23.43;55.62;99530.50;130396;1265;109550;-76
2022/07/26 09:38:48;;;;;;;6.70;4.70;;;;;;;23.20;56.25;99539.52;130396;1264;107703;-76
2022/07/26 09:41:54;;;;;;;5.90;4.60;;;;;;;23.03;56.53;99542.83;130423;1265;108997;-77
2022/07/26 09:45:00;;;;;;;6.70;5.30;;;;;;;22.80;57.12;99550.71;130427;1265;108763;-78
2022/07/26 09:48:11;;;;;;;7.90;5.90;;;;;;;22.60;58.29;99554.56;130509;1265;106396;-76
2022/07/26 09:51:34;;;;;;;9.70;5.90;;;;;;;22.36;58.66;99559.75;130490;1265;108773;-78
2022/07/26 09:54:40;;;;;;;6.70;5.80;;;;;;;22.17;59.93;99566.30;130430;1265;204075;-78
2022/07/26 09:57:45;;;;;;;12.60;6.40;;;;;;;21.99;60.25;99573.06;130411;1265;108818;-77
2022/07/26 10:00:51;;;;;;;7.10;6.10;;;;;;;21.86;60.50;99581.26;130420;1265;108924;-75
2022/07/26 10:03:56;;;;;;;8.80;6.50;;;;;;;21.76;60.95;99589.41;130371;1265;108860;-78
2022/07/26 10:07:02;;;;;;;7.50;6.30;;;;;;;21.72;61.65;99590.39;130318;1268;108865;-76
2022/07/26 10:10:12;;;;;;;8.70;6.90;;;;;;;21.72;61.98;99583.95;130459;1265;108700;-78
2022/07/26 10:13:19;;;;;;;7.90;6.90;;;;;;;21.72;62.76;99582.20;130529;1265;108868;-76
2022/07/26 10:16:33;;;;;;;9.80;6.80;;;;;;;21.72;63.45;99584.64;130570;1265;108779;-76
2022/07/26 10:19:42;;;;;;;6.60;5.90;;;;;;;21.74;64.53;99578.02;130374;1265;107550;-75
2022/07/26 10:22:49;;;;;;;7.00;6.30;;;;;;;21.77;65.22;99579.04;130358;1265;108602;-76
2022/07/26 10:25:54;;;;;;;8.40;6.60;;;;;;;21.86;65.85;99583.05;130352;1265;109213;-76
2022/07/26 10:29:22;;;;;;;9.60;6.90;;;;;;;21.86;66.33;99589.67;130391;1267;108679;-76
2022/07/26 10:32:30;;;;;;;8.60;7.40;;;;;;;21.80;66.54;99594.95;130415;1266;108700;-76
2022/07/26 10:35:42;;;;;;;8.60;6.70;;;;;;;21.78;66.87;99601.42;130433;1265;108866;-76
2022/07/26 10:39:00;;;;;;;7.60;6.80;;;;;;;21.79;67.37;99613.61;130407;1265;108841;-76
2022/07/26 10:42:08;;;;;;;9.80;7.60;;;;;;;21.76;67.86;99624.64;130402;1267;108839;-76
2022/07/26 10:45:22;;;;;;;9.10;7.60;;;;;;;21.69;68.49;99627.92;130410;1266;107649;-76
2022/07/26 10:48:28;;;;;;;9.90;7.80;;;;;;;21.71;68.10;99636.98;130419;1265;108712;-76
2022/07/26 10:51:35;;;;;;;9.00;7.90;;;;;;;21.74;68.87;99640.95;130416;1265;108500;-76
2022/07/26 10:55:15;;;;;;;8.90;8.00;;;;;;;21.69;70.81;99639.07;130476;1265;108899;-77
2022/07/26 10:58:22;;;;;;;9.80;7.90;;;;;;;21.59;71.61;99650.20;130541;1265;108730;-76
2022/07/26 11:01:35;;;;;;;8.50;7.60;;;;;;;21.48;72.57;99648.02;130530;1267;108709;-76
2022/07/26 11:04:41;;;;;;;9.70;8.70;;;;;;;21.42;73.59;99653.02;130390;1268;108723;-76
2022/07/26 11:08:07;;;;;;;9.20;8.30;;;;;;;21.42;74.06;99655.64;130350;1268;107673;-76
2022/07/26 11:11:12;;;;;;;9.10;8.10;;;;;;;21.33;75.66;99656.14;130384;1268;108612;-76
2022/07/26 11:14:18;;;;;;;8.70;7.90;;;;;;;21.21;74.84;99662.17;130406;1265;108982;-76
2022/07/26 11:17:28;;;;;;;10.00;7.70;;;;;;;21.15;75.85;99666.44;130569;1265;108542;-76
2022/07/26 11:20:34;;;;;;;8.90;7.50;;;;;;;21.12;75.63;99659.33;130433;1265;108451;-76
2022/07/26 11:23:42;;;;;;;8.40;7.60;;;;;;;21.17;76.51;99666.54;130542;1268;108840;-76
2022/07/26 11:26:48;;;;;;;7.70;7.00;;;;;;;21.04;76.90;99672.86;130558;1266;107333;-76
2022/07/26 11:29:53;;;;;;;9.50;7.80;;;;;;;20.99;78.02;99674.59;130375;1265;107169;-76
2022/07/26 11:32:59;;;;;;;9.00;6.90;;;;;;;20.85;79.22;99662.35;130508;1265;108815;-76
2022/07/26 11:36:05;;;;;;;8.50;7.00;;;;;;;20.74;79.43;99660.73;130455;1264;108543;-76
2022/07/26 11:39:13;;;;;;;7.70;7.00;;;;;;;20.70;80.05;99671.58;130427;1265;107582;-77
2022/07/26 11:42:20;;;;;;;7.40;6.50;;;;;;;20.71;80.45;99679.86;130369;1268;108191;-76
2022/07/26 11:45:26;;;;;;;7.80;7.00;;;;;;;20.71;80.91;99681.81;130368;1265;107757;-76
2022/07/26 11:48:32;;;;;;;9.60;7.30;;;;;;;20.63;80.92;99674.83;130413;1265;108719;-76
2022/07/26 11:51:38;;;;;;;8.00;7.10;;;;;;;20.63;81.30;99670.48;130475;1265;108642;-76
2022/07/26 11:54:48;;;;;;;7.50;6.80;;;;;;;20.59;81.04;99670.98;130512;1265;108905;-76
2022/07/26 11:57:54;;;;;;;7.30;6.30;;;;;;;20.55;81.13;99672.12;130405;1265;108903;-76
2022/07/26 12:00:59;;;;;;;8.00;7.20;;;;;;;20.51;82.50;99670.39;130448;1265;108885;-77
2022/07/26 12:04:05;;;;;;;8.30;7.30;;;;;;;20.43;82.86;99678.10;130392;1265;108110;-77
2022/07/26 12:07:14;;;;;;;7.40;6.70;;;;;;;20.38;82.63;99683.67;130537;1265;108768;-77
2022/07/26 12:10:19;;;;;;;7.70;6.90;;;;;;;20.35;82.89;99681.64;130391;1265;108641;-76
2022/07/26 12:13:25;;;;;;;8.50;7.70;;;;;;;20.31;83.24;99666.85;130448;1265;108696;-77
2022/07/26 12:16:42;;;;;;;9.20;7.90;;;;;;;20.33;84.27;99662.83;130484;1265;108697;-77
2022/07/26 12:19:47;;;;;;;7.70;7.00;;;;;;;20.31;83.64;99662.61;130469;1265;107645;-76
2022/07/26 12:22:59;;;;;;;7.80;7.10;;;;;;;20.34;83.96;99667.15;130510;1265;108675;-76
2022/07/26 12:26:24;;;;;;;7.70;7.00;;;;;;;20.41;83.72;99666.55;130496;1268;108244;-76
2022/07/26 12:29:34;;;;;;;8.90;7.90;;;;;;;20.48;84.47;99663.27;130363;1268;109711;-77
2022/07/26 12:32:41;;;;;;;7.80;7.00;;;;;;;20.61;82.79;99660.49;130411;1266;108716;-76
2022/07/26 12:35:46;;;;;;;7.80;6.80;;;;;;;20.59;82.94;99664.02;130405;1267;108942;-76
2022/07/26 12:38:52;;;;;;;7.70;6.90;;;;;;;20.39;82.30;99675.83;130436;1268;108562;-76
2022/07/26 12:41:57;;;;;;;8.00;7.20;;;;;;;20.32;81.95;99673.10;130396;1268;108020;-77
2022/07/26 12:45:07;;;;;;;9.20;7.10;;;;;;;20.33;82.04;99672.98;130351;1268;108869;-76
2022/07/26 12:48:12;;;;;;;7.50;6.80;;;;;;;20.35;82.41;99671.16;130357;1267;108752;-77
2022/07/26 12:51:18;;;;;;;8.40;7.50;;;;;;;20.36;82.74;99670.00;130406;1268;108730;-76
2022/07/26 12:54:23;;;;;;;7.60;6.80;;;;;;;20.35;82.68;99667.55;130363;1268;106992;-77
2022/07/26 12:57:29;;;;;;;8.40;7.60;;;;;;;20.30;82.99;99681.27;130335;1267;108709;-76
2022/07/26 13:00:35;;;;;;;9.10;7.00;;;;;;;20.32;83.14;99684.19;130350;1268;109014;-76
2022/07/26 13:03:40;;;;;;;8.20;6.30;;;;;;;20.32;83.59;99686.80;130374;1268;108746;-76
2022/07/26 13:06:45;;;;;;;7.40;6.60;;;;;;;20.35;83.33;99690.39;130378;1267;108607;-76
2022/07/26 13:09:51;;;;;;;7.40;6.60;;;;;;;20.48;83.00;99698.66;130384;1268;108890;-76
2022/07/26 13:12:56;;;;;;;10.40;6.70;;;;;;;20.63;82.89;99703.55;130385;1266;108630;-76
2022/07/26 13:16:02;;;;;;;8.30;6.50;;;;;;;20.65;82.68;99706.31;130396;1267;107563;-76
2022/07/26 13:19:07;;;;;;;6.60;5.70;;;;;;;20.69;82.41;99706.71;130414;1267;108599;-76
2022/07/26 13:22:13;;;;;;;6.60;5.80;;;;;;;20.72;81.69;99706.02;130394;1268;108789;-76
2022/07/26 13:25:18;;;;;;;5.80;5.20;;;;;;;20.58;80.93;99711.61;130350;1268;108818;-76
2022/07/26 13:28:24;;;;;;;5.70;4.60;;;;;;;20.51;81.06;99703.62;130404;1267;108750;-76
2022/07/26 13:31:29;;;;;;;6.00;4.70;;;;;;;20.46;80.98;99706.50;130475;1268;107222;-76
2022/07/26 13:34:34;;;;;;;5.60;4.50;;;;;;;20.34;80.82;99701.08;130489;1268;108868;-77
2022/07/26 13:37:40;;;;;;;4.50;3.80;;;;;;;20.31;80.78;99706.88;130407;1267;108674;-76
2022/07/26 13:40:45;;;;;;;5.40;3.90;;;;;;;20.14;80.11;99713.20;130408;1266;108846;-76
2022/07/26 13:43:52;;;;;;;4.60;2.90;;;;;;;19.96;79.63;99712.55;130350;1265;109016;-76
2022/07/26 13:46:58;;;;;;;4.10;2.70;;;;;;;19.82;79.83;99723.89;130482;1265;109565;-76
2022/07/26 13:50:04;;;;;;;4.40;3.10;;;;;;;19.72;79.69;99732.33;130404;1265;108889;-77
2022/07/26 13:53:09;;;;;;;4.90;3.20;;;;;;;19.69;79.71;99735.84;130337;1267;108986;-76
2022/07/26 13:56:14;;;;;;;5.20;3.70;;;;;;;19.70;79.70;99737.76;130339;1268;108949;-77
2022/07/26 13:59:20;;;;;;;3.30;3.00;;;;;;;19.73;79.64;99739.33;130407;1268;109893;-77
2022/07/26 14:02:26;;;;;;;4.90;2.90;;;;;;;19.66;79.76;99746.45;130493;1265;107420;-76
2022/07/26 14:05:31;;;;;;;6.10;3.20;;;;;;;19.63;79.85;99744.11;130451;1265;108719;-76
2022/07/26 14:08:37;;;;;;;4.40;3.00;;;;;;;19.65;79.73;99742.27;130433;1265;108659;-77
2022/07/26 14:11:43;;;;;;;4.30;2.70;;;;;;;19.78;79.71;99741.26;130386;1266;108644;-78
2022/07/26 14:14:49;;;;;;;4.00;2.50;;;;;;;19.93;79.41;99751.51;130292;1267;108779;-78
2022/07/26 14:17:54;;;;;;;10.10;5.20;;;;;;;20.03;79.41;99756.88;130629;1266;107969;-77